sensor_id;sensor_type;location;lat;lon;timestamp;pressure;altitude;pressure_sealevel;temperature;humidity
59757;BME280;45631;51.962;5.974;2023-03-01T00:01:25;103032.97;;;-1.40;100.00
59757;BME280;45631;51.962;5.974;2023-03-01T00:03:54;103030.38;;;-1.40;100.00
59757;BME280;45631;51.962;5.974;2023-03-01T00:06:23;103028.59;;;-1.44;100.00
59757;BME280;45631;51.962;5.974;2023-03-01T00:08:52;103025.91;;;-1.47;100.00
59757;BME280;45631;51.962;5.974;2023-03-01T00:11:22;103023.31;;;-1.49;100.00
59757;BME280;45631;51.962;5.974;2023-03-01T00:13:53;103021.69;;;-1.44;100.00
59757;BME280;45631;51.962;5.974;2023-03-01T00:16:24;103024.22;;;-1.47;100.00
59757;BME280;45631;51.962;5.974;2023-03-01T00:18:53;103020.69;;;-1.52;100.00
59757;BME280;45631;51.962;5.974;2023-03-01T00:21:22;103016.34;;;-1.53;100.00
59757;BME280;45631;51.962;5.974;2023-03-01T00:23:51;103010.34;;;-1.52;100.00
59757;BME280;45631;51.962;5.974;2023-03-01T00:26:21;103001.78;;;-1.51;100.00
59757;BME280;45631;51.962;5.974;2023-03-01T00:28:50;103003.53;;;-1.50;100.00
59757;BME280;45631;51.962;5.974;2023-03-01T00:31:20;103005.34;;;-1.44;100.00
59757;BME280;45631;51.962;5.974;2023-03-01T00:33:52;103012.28;;;-1.42;100.00
59757;BME280;45631;51.962;5.974;2023-03-01T00:36:20;103005.44;;;-1.38;100.00
59757;BME280;45631;51.962;5.974;2023-03-01T00:38:48;103011.22;;;-1.51;100.00
59757;BME280;45631;51.962;5.974;2023-03-01T00:41:17;103000.94;;;-1.50;100.00
59757;BME280;45631;51.962;5.974;2023-03-01T00:43:46;103003.38;;;-1.56;100.00
59757;BME280;45631;51.962;5.974;2023-03-01T00:46:15;103004.97;;;-1.63;100.00
59757;BME280;45631;51.962;5.974;2023-03-01T00:48:44;103007.53;;;-1.64;100.00
59757;BME280;45631;51.962;5.974;2023-03-01T00:51:16;103003.94;;;-1.71;100.00
59757;BME280;45631;51.962;5.974;2023-03-01T00:53:45;103005.56;;;-1.76;100.00
59757;BME280;45631;51.962;5.974;2023-03-01T00:56:14;102998.59;;;-1.80;100.00
59757;BME280;45631;51.962;5.974;2023-03-01T00:58:42;102989.31;;;-1.71;100.00
59757;BME280;45631;51.962;5.974;2023-03-01T01:01:13;102984.94;;;-1.75;100.00
59757;BME280;45631;51.962;5.974;2023-03-01T01:03:46;102992.69;;;-1.75;100.00
59757;BME280;45631;51.962;5.974;2023-03-01T01:06:18;102975.38;;;-1.80;100.00
59757;BME280;45631;51.962;5.974;2023-03-01T01:08:47;102984.03;;;-1.78;100.00
59757;BME280;45631;51.962;5.974;2023-03-01T01:11:16;102976.06;;;-1.89;100.00
59757;BME280;45631;51.962;5.974;2023-03-01T01:13:45;102977.16;;;-1.78;100.00
59757;BME280;45631;51.962;5.974;2023-03-01T01:16:15;102982.81;;;-1.94;100.00
59757;BME280;45631;51.962;5.974;2023-03-01T01:18:43;102982.06;;;-1.89;100.00
59757;BME280;45631;51.962;5.974;2023-03-01T01:21:13;102972.47;;;-1.96;100.00
59757;BME280;45631;51.962;5.974;2023-03-01T01:23:44;102971.63;;;-1.96;100.00
59757;BME280;45631;51.962;5.974;2023-03-01T01:26:14;102968.16;;;-1.97;100.00
59757;BME280;45631;51.962;5.974;2023-03-01T01:28:43;102974.28;;;-1.92;100.00
59757;BME280;45631;51.962;5.974;2023-03-01T01:31:11;102961.13;;;-2.04;100.00
59757;BME280;45631;51.962;5.974;2023-03-01T01:33:39;102954.03;;;-2.14;100.00
59757;BME280;45631;51.962;5.974;2023-03-01T01:36:08;102955.78;;;-2.13;100.00
59757;BME280;45631;51.962;5.974;2023-03-01T01:38:37;102955.66;;;-2.19;100.00
59757;BME280;45631;51.962;5.974;2023-03-01T01:41:07;102958.03;;;-2.29;100.00
59757;BME280;45631;51.962;5.974;2023-03-01T01:43:37;102956.28;;;-2.30;100.00
59757;BME280;45631;51.962;5.974;2023-03-01T01:46:13;102955.44;;;-2.29;100.00
59757;BME280;45631;51.962;5.974;2023-03-01T01:48:46;102955.25;;;-2.36;100.00
59757;BME280;45631;51.962;5.974;2023-03-01T01:51:20;102956.13;;;-2.36;100.00
59757;BME280;45631;51.962;5.974;2023-03-01T01:53:56;102956.06;;;-2.39;100.00
59757;BME280;45631;51.962;5.974;2023-03-01T01:56:29;102955.28;;;-2.35;100.00
59757;BME280;45631;51.962;5.974;2023-03-01T01:58:58;102956.13;;;-2.36;100.00
59757;BME280;45631;51.962;5.974;2023-03-01T02:01:26;102965.63;;;-2.33;100.00
59757;BME280;45631;51.962;5.974;2023-03-01T02:03:54;102966.19;;;-2.47;100.00
59757;BME280;45631;51.962;5.974;2023-03-01T02:06:27;102966.31;;;-2.42;100.00
59757;BME280;45631;51.962;5.974;2023-03-01T02:09:00;102963.69;;;-2.44;100.00
59757;BME280;45631;51.962;5.974;2023-03-01T02:11:31;102955.78;;;-2.51;100.00
59757;BME280;45631;51.962;5.974;2023-03-01T02:14:00;102953.13;;;-2.56;100.00
59757;BME280;45631;51.962;5.974;2023-03-01T02:16:28;102953.09;;;-2.58;100.00
59757;BME280;45631;51.962;5.974;2023-03-01T02:18:58;102955.66;;;-2.58;100.00
59757;BME280;45631;51.962;5.974;2023-03-01T02:21:37;102954.84;;;-2.55;100.00
59757;BME280;45631;51.962;5.974;2023-03-01T02:24:15;102953.09;;;-2.58;100.00
59757;BME280;45631;51.962;5.974;2023-03-01T02:26:50;102942.69;;;-2.61;100.00
59757;BME280;45631;51.962;5.974;2023-03-01T02:29:21;102943.38;;;-2.68;100.00
59757;BME280;45631;51.962;5.974;2023-03-01T02:31:49;102939.13;;;-2.66;100.00
59757;BME280;45631;51.962;5.974;2023-03-01T02:34:21;102940.63;;;-2.76;100.00
59757;BME280;45631;51.962;5.974;2023-03-01T02:36:54;102944.94;;;-2.75;100.00
59757;BME280;45631;51.962;5.974;2023-03-01T02:39:26;102939.69;;;-2.79;100.00
59757;BME280;45631;51.962;5.974;2023-03-01T02:41:56;102936.88;;;-2.89;100.00
59757;BME280;45631;51.962;5.974;2023-03-01T02:44:27;102938.47;;;-2.94;100.00
59757;BME280;45631;51.962;5.974;2023-03-01T02:46:56;102942.09;;;-2.85;100.00
59757;BME280;45631;51.962;5.974;2023-03-01T02:49:26;102934.31;;;-2.89;100.00
59757;BME280;45631;51.962;5.974;2023-03-01T02:52:14;102932.50;;;-2.93;100.00
59757;BME280;45631;51.962;5.974;2023-03-01T02:54:47;102930.63;;;-3.00;100.00
59757;BME280;45631;51.962;5.974;2023-03-01T02:57:18;102934.78;;;-3.05;100.00
59757;BME280;45631;51.962;5.974;2023-03-01T02:59:51;102931.25;;;-3.09;100.00
59757;BME280;45631;51.962;5.974;2023-03-01T03:02:20;102926.06;;;-3.10;100.00
59757;BME280;45631;51.962;5.974;2023-03-01T03:05:08;102927.69;;;-3.12;100.00
59757;BME280;45631;51.962;5.974;2023-03-01T03:07:39;102923.41;;;-3.13;100.00
59757;BME280;45631;51.962;5.974;2023-03-01T03:10:10;102916.50;;;-3.14;100.00
59757;BME280;45631;51.962;5.974;2023-03-01T03:12:39;102923.44;;;-3.12;100.00
59757;BME280;45631;51.962;5.974;2023-03-01T03:15:11;102922.56;;;-3.12;100.00
59757;BME280;45631;51.962;5.974;2023-03-01T03:17:41;102917.50;;;-3.09;100.00
59757;BME280;45631;51.962;5.974;2023-03-01T03:20:12;102919.97;;;-3.12;100.00
59757;BME280;45631;51.962;5.974;2023-03-01T03:22:46;102925.97;;;-3.13;100.00
59757;BME280;45631;51.962;5.974;2023-03-01T03:25:14;102919.09;;;-3.14;100.00
59757;BME280;45631;51.962;5.974;2023-03-01T03:27:44;102909.69;;;-3.12;100.00
59757;BME280;45631;51.962;5.974;2023-03-01T03:30:16;102918.38;;;-3.09;100.00
59757;BME280;45631;51.962;5.974;2023-03-01T03:32:46;102919.13;;;-3.13;100.00
59757;BME280;45631;51.962;5.974;2023-03-01T03:35:20;102916.50;;;-3.14;100.00
59757;BME280;45631;51.962;5.974;2023-03-01T03:37:48;102914.75;;;-3.15;100.00
59757;BME280;45631;51.962;5.974;2023-03-01T03:40:34;102917.38;;;-3.14;100.00
59757;BME280;45631;51.962;5.974;2023-03-01T03:43:04;102919.91;;;-3.15;100.00
59757;BME280;45631;51.962;5.974;2023-03-01T03:45:34;102912.09;;;-3.20;100.00
59757;BME280;45631;51.962;5.974;2023-03-01T03:48:04;102906.19;;;-3.16;100.00
59757;BME280;45631;51.962;5.974;2023-03-01T03:50:33;102907.03;;;-3.15;100.00
59757;BME280;45631;51.962;5.974;2023-03-01T03:53:03;102914.81;;;-3.14;100.00
59757;BME280;45631;51.962;5.974;2023-03-01T03:55:31;102912.19;;;-3.15;100.00
59757;BME280;45631;51.962;5.974;2023-03-01T03:58:01;102905.22;;;-3.19;100.00
59757;BME280;45631;51.962;5.974;2023-03-01T04:00:36;102906.03;;;-3.20;100.00
59757;BME280;45631;51.962;5.974;2023-03-01T04:03:05;102900.00;;;-3.23;100.00
59757;BME280;45631;51.962;5.974;2023-03-01T04:05:37;102904.22;;;-3.25;100.00
59757;BME280;45631;51.962;5.974;2023-03-01T04:08:06;102905.97;;;-3.24;100.00
59757;BME280;45631;51.962;5.974;2023-03-01T04:10:36;102908.72;;;-3.17;100.00
59757;BME280;45631;51.962;5.974;2023-03-01T04:13:05;102898.28;;;-3.22;100.00
59757;BME280;45631;51.962;5.974;2023-03-01T04:15:35;102898.22;;;-3.25;100.00
59757;BME280;45631;51.962;5.974;2023-03-01T04:18:04;102897.38;;;-3.26;100.00
59757;BME280;45631;51.962;5.974;2023-03-01T04:20:35;102900.84;;;-3.24;100.00
59757;BME280;45631;51.962;5.974;2023-03-01T04:23:05;102897.38;;;-3.26;100.00
59757;BME280;45631;51.962;5.974;2023-03-01T04:25:41;102894.69;;;-3.29;100.00
59757;BME280;45631;51.962;5.974;2023-03-01T04:28:10;102886.97;;;-3.29;100.00
59757;BME280;45631;51.962;5.974;2023-03-01T04:30:40;102883.50;;;-3.31;100.00
59757;BME280;45631;51.962;5.974;2023-03-01T04:33:10;102883.56;;;-3.28;100.00
59757;BME280;45631;51.962;5.974;2023-03-01T04:35:38;102882.63;;;-3.31;100.00
59757;BME280;45631;51.962;5.974;2023-03-01T04:38:07;102891.25;;;-3.29;100.00
59757;BME280;45631;51.962;5.974;2023-03-01T04:40:36;102892.91;;;-3.31;100.00
59757;BME280;45631;51.962;5.974;2023-03-01T04:43:04;102891.25;;;-3.29;100.00
59757;BME280;45631;51.962;5.974;2023-03-01T04:45:33;102886.00;;;-3.34;100.00
59757;BME280;45631;51.962;5.974;2023-03-01T04:48:04;102877.38;;;-3.36;100.00
59757;BME280;45631;51.962;5.974;2023-03-01T04:50:32;102878.22;;;-3.35;100.00
59757;BME280;45631;51.962;5.974;2023-03-01T04:53:01;102873.94;;;-3.36;100.00
59757;BME280;45631;51.962;5.974;2023-03-01T04:55:29;102874.78;;;-3.36;100.00
59757;BME280;45631;51.962;5.974;2023-03-01T04:57:58;102872.22;;;-3.36;100.00
59757;BME280;45631;51.962;5.974;2023-03-01T05:00:26;102870.50;;;-3.35;100.00
59757;BME280;45631;51.962;5.974;2023-03-01T05:02:56;102867.03;;;-3.37;100.00
59757;BME280;45631;51.962;5.974;2023-03-01T05:05:29;102864.44;;;-3.39;100.00
59757;BME280;45631;51.962;5.974;2023-03-01T05:08:00;102862.69;;;-3.40;100.00
59757;BME280;45631;51.962;5.974;2023-03-01T05:10:29;102859.25;;;-3.41;100.00
59757;BME280;45631;51.962;5.974;2023-03-01T05:12:58;102850.91;;;-3.30;100.00
59757;BME280;45631;51.962;5.974;2023-03-01T05:15:28;102854.19;;;-3.36;100.00
59757;BME280;45631;51.962;5.974;2023-03-01T05:17:59;102843.91;;;-3.36;100.00
59757;BME280;45631;51.962;5.974;2023-03-01T05:20:29;102838.69;;;-3.39;100.00
59757;BME280;45631;51.962;5.974;2023-03-01T05:22:59;102841.22;;;-3.41;100.00
59757;BME280;45631;51.962;5.974;2023-03-01T05:25:33;102828.47;;;-3.36;100.00
59757;BME280;45631;51.962;5.974;2023-03-01T05:28:11;102832.66;;;-3.40;100.00
59757;BME280;45631;51.962;5.974;2023-03-01T05:30:39;102829.22;;;-3.40;100.00
59757;BME280;45631;51.962;5.974;2023-03-01T05:33:08;102823.19;;;-3.42;100.00
59757;BME280;45631;51.962;5.974;2023-03-01T05:35:42;102828.38;;;-3.41;100.00
59757;BME280;45631;51.962;5.974;2023-03-01T05:38:11;102823.19;;;-3.42;100.00
59757;BME280;45631;51.962;5.974;2023-03-01T05:40:41;102818.84;;;-3.45;100.00
59757;BME280;45631;51.962;5.974;2023-03-01T05:43:10;102826.81;;;-3.34;100.00
59757;BME280;45631;51.962;5.974;2023-03-01T05:45:39;102821.66;;;-3.34;100.00
59757;BME280;45631;51.962;5.974;2023-03-01T05:48:08;102823.31;;;-3.36;100.00
59757;BME280;45631;51.962;5.974;2023-03-01T05:50:39;102822.38;;;-3.40;100.00
59757;BME280;45631;51.962;5.974;2023-03-01T05:53:12;102822.25;;;-3.44;100.00
59757;BME280;45631;51.962;5.974;2023-03-01T05:55:42;102821.28;;;-3.49;100.00
59757;BME280;45631;51.962;5.974;2023-03-01T05:58:12;102811.97;;;-3.44;100.00
59757;BME280;45631;51.962;5.974;2023-03-01T06:00:41;102817.03;;;-3.47;100.00
59757;BME280;45631;51.962;5.974;2023-03-01T06:03:11;102821.28;;;-3.49;100.00
59757;BME280;45631;51.962;5.974;2023-03-01T06:05:40;102818.06;;;-3.41;100.00
59757;BME280;45631;51.962;5.974;2023-03-01T06:08:13;102821.38;;;-3.46;100.00
59757;BME280;45631;51.962;5.974;2023-03-01T06:10:41;102827.34;;;-3.47;100.00
59757;BME280;45631;51.962;5.974;2023-03-01T06:13:09;102824.72;;;-3.49;100.00
59757;BME280;45631;51.962;5.974;2023-03-01T06:15:37;102828.09;;;-3.51;100.00
59757;BME280;45631;51.962;5.974;2023-03-01T06:18:05;102833.22;;;-3.53;100.00
59757;BME280;45631;51.962;5.974;2023-03-01T06:20:33;102825.56;;;-3.50;100.00
59757;BME280;45631;51.962;5.974;2023-03-01T06:23:02;102830.69;;;-3.50;100.00
59757;BME280;45631;51.962;5.974;2023-03-01T06:25:32;102827.56;;;-3.38;100.00
59757;BME280;45631;51.962;5.974;2023-03-01T06:28:00;102827.56;;;-3.38;100.00
59757;BME280;45631;51.962;5.974;2023-03-01T06:30:31;102823.81;;;-3.51;100.00
59757;BME280;45631;51.962;5.974;2023-03-01T06:32:59;102824.59;;;-3.53;100.00
59757;BME280;45631;51.962;5.974;2023-03-01T06:35:30;102826.28;;;-3.55;100.00
59757;BME280;45631;51.962;5.974;2023-03-01T06:37:59;102821.25;;;-3.51;100.00
59757;BME280;45631;51.962;5.974;2023-03-01T06:40:28;102821.38;;;-3.46;100.00
59757;BME280;45631;51.962;5.974;2023-03-01T06:43:01;102814.47;;;-3.47;100.00
59757;BME280;45631;51.962;5.974;2023-03-01T06:45:29;102822.00;;;-3.55;100.00
59757;BME280;45631;51.962;5.974;2023-03-01T06:48:05;102822.06;;;-3.52;100.00
59757;BME280;45631;51.962;5.974;2023-03-01T06:50:34;102826.16;;;-3.60;100.00
59757;BME280;45631;51.962;5.974;2023-03-01T06:53:03;102833.81;;;-3.62;100.00
59757;BME280;45631;51.962;5.974;2023-03-01T06:55:31;102826.25;;;-3.57;100.00
59757;BME280;45631;51.962;5.974;2023-03-01T06:58:03;102830.44;;;-3.61;100.00
59757;BME280;45631;51.962;5.974;2023-03-01T07:00:32;102833.72;;;-3.66;100.00
59757;BME280;45631;51.962;5.974;2023-03-01T07:03:01;102837.13;;;-3.67;100.00
59757;BME280;45631;51.962;5.974;2023-03-01T07:05:30;102831.94;;;-3.69;100.00
59757;BME280;45631;51.962;5.974;2023-03-01T07:08:00;102832.78;;;-3.68;100.00
59757;BME280;45631;51.962;5.974;2023-03-01T07:10:31;102829.56;;;-3.61;100.00
59757;BME280;45631;51.962;5.974;2023-03-01T07:13:00;102829.59;;;-3.60;100.00
59757;BME280;45631;51.962;5.974;2023-03-01T07:15:29;102829.72;;;-3.55;100.00
59757;BME280;45631;51.962;5.974;2023-03-01T07:17:57;102826.34;;;-3.52;100.00
59757;BME280;45631;51.962;5.974;2023-03-01T07:20:25;102831.66;;;-3.46;100.00
59757;BME280;45631;51.962;5.974;2023-03-01T07:22:54;102825.94;;;-3.34;100.00
59757;BME280;45631;51.962;5.974;2023-03-01T07:25:23;102822.72;;;-3.26;100.00
59757;BME280;45631;51.962;5.974;2023-03-01T07:27:51;102828.97;;;-3.14;100.00
59757;BME280;45631;51.962;5.974;2023-03-01T07:30:20;102825.75;;;-3.06;100.00
59757;BME280;45631;51.962;5.974;2023-03-01T07:32:49;102822.59;;;-2.94;100.00
59757;BME280;45631;51.962;5.974;2023-03-01T07:35:21;102820.53;;;-2.70;100.00
59757;BME280;45631;51.962;5.974;2023-03-01T07:37:49;102819.09;;;-2.15;100.00
59757;BME280;45631;51.962;5.974;2023-03-01T07:40:18;102823.47;;;-2.09;100.00
59757;BME280;45631;51.962;5.974;2023-03-01T07:42:46;102824.63;;;-1.95;100.00
59757;BME280;45631;51.962;5.974;2023-03-01T07:45:14;102824.09;;;-1.77;100.00
59757;BME280;45631;51.962;5.974;2023-03-01T07:47:42;102827.28;;;-1.41;100.00
59757;BME280;45631;51.962;5.974;2023-03-01T07:50:12;102838.03;;;-1.13;100.00
59757;BME280;45631;51.962;5.974;2023-03-01T07:52:40;102833.38;;;-0.12;100.00
59757;BME280;45631;51.962;5.974;2023-03-01T07:55:08;102819.28;;;0.47;100.00
59757;BME280;45631;51.962;5.974;2023-03-01T07:57:36;102820.06;;;0.37;100.00
59757;BME280;45631;51.962;5.974;2023-03-01T08:00:05;102822.88;;;0.62;100.00
59757;BME280;45631;51.962;5.974;2023-03-01T08:02:34;102820.22;;;0.57;100.00
59757;BME280;45631;51.962;5.974;2023-03-01T08:05:02;102824.44;;;0.47;100.00
59757;BME280;45631;51.962;5.974;2023-03-01T08:07:32;102827.59;;;1.26;100.00
59757;BME280;45631;51.962;5.974;2023-03-01T08:10:00;102835.19;;;0.94;100.00
59757;BME280;45631;51.962;5.974;2023-03-01T08:12:29;102831.78;;;1.01;100.00
59757;BME280;45631;51.962;5.974;2023-03-01T08:14:57;102835.44;;;1.37;100.00
59757;BME280;45631;51.962;5.974;2023-03-01T08:17:25;102838.03;;;1.34;100.00
59757;BME280;45631;51.962;5.974;2023-03-01T08:19:53;102828.66;;;1.68;100.00
59757;BME280;45631;51.962;5.974;2023-03-01T08:22:21;102828.78;;;2.01;100.00
59757;BME280;45631;51.962;5.974;2023-03-01T08:24:51;102834.81;;;2.03;100.00
59757;BME280;45631;51.962;5.974;2023-03-01T08:27:19;102825.34;;;2.45;100.00
59757;BME280;45631;51.962;5.974;2023-03-01T08:29:47;102822.78;;;2.72;100.00
59757;BME280;45631;51.962;5.974;2023-03-01T08:32:15;102822.78;;;2.72;100.00
59757;BME280;45631;51.962;5.974;2023-03-01T08:34:46;102820.13;;;2.99;99.83
59757;BME280;45631;51.962;5.974;2023-03-01T08:37:14;102819.97;;;3.58;97.76
59757;BME280;45631;51.962;5.974;2023-03-01T08:39:42;102817.41;;;3.46;95.37
59757;BME280;45631;51.962;5.974;2023-03-01T08:42:14;102818.16;;;3.68;91.99
59757;BME280;45631;51.962;5.974;2023-03-01T08:44:42;102808.66;;;3.68;93.39
59757;BME280;45631;51.962;5.974;2023-03-01T08:47:12;102811.19;;;3.81;90.09
59757;BME280;45631;51.962;5.974;2023-03-01T08:49:41;102803.31;;;3.92;92.69
59757;BME280;45631;51.962;5.974;2023-03-01T08:52:09;102794.72;;;3.74;89.36
59757;BME280;45631;51.962;5.974;2023-03-01T08:54:37;102799.75;;;4.06;87.61
59757;BME280;45631;51.962;5.974;2023-03-01T08:57:06;102798.88;;;4.11;87.75
59757;BME280;45631;51.962;5.974;2023-03-01T08:59:37;102796.25;;;4.06;84.33
59757;BME280;45631;51.962;5.974;2023-03-01T09:02:08;102800.78;;;3.81;85.38
59757;BME280;45631;51.962;5.974;2023-03-01T09:04:38;102792.00;;;3.96;86.30
59757;BME280;45631;51.962;5.974;2023-03-01T09:07:06;102784.97;;;4.07;85.89
59757;BME280;45631;51.962;5.974;2023-03-01T09:09:35;102779.72;;;4.16;84.07
59757;BME280;45631;51.962;5.974;2023-03-01T09:12:03;102777.97;;;4.15;82.91
59757;BME280;45631;51.962;5.974;2023-03-01T09:14:32;102786.69;;;4.11;82.93
59757;BME280;45631;51.962;5.974;2023-03-01T09:17:01;102776.34;;;4.00;82.98
59757;BME280;45631;51.962;5.974;2023-03-01T09:19:30;102785.72;;;4.25;81.97
59757;BME280;45631;51.962;5.974;2023-03-01T09:21:58;102790.00;;;4.33;82.04
59757;BME280;45631;51.962;5.974;2023-03-01T09:24:26;102788.34;;;4.25;81.51
59757;BME280;45631;51.962;5.974;2023-03-01T09:26:54;102786.53;;;4.34;82.53
59757;BME280;45631;51.962;5.974;2023-03-01T09:29:23;102779.53;;;4.41;80.94
59757;BME280;45631;51.962;5.974;2023-03-01T09:31:52;102775.06;;;4.55;80.61
59757;BME280;45631;51.962;5.974;2023-03-01T09:34:23;102776.56;;;4.80;81.03
59757;BME280;45631;51.962;5.974;2023-03-01T09:36:52;102778.34;;;4.76;80.33
59757;BME280;45631;51.962;5.974;2023-03-01T09:39:22;102772.19;;;4.83;78.32
59757;BME280;45631;51.962;5.974;2023-03-01T09:41:55;102767.69;;;4.96;80.18
59757;BME280;45631;51.962;5.974;2023-03-01T09:44:31;102766.78;;;5.02;77.73
59757;BME280;45631;51.962;5.974;2023-03-01T09:47:02;102758.97;;;5.02;77.66
59757;BME280;45631;51.962;5.974;2023-03-01T09:49:33;102763.19;;;5.11;78.54
59757;BME280;45631;51.962;5.974;2023-03-01T09:52:11;102756.97;;;5.22;77.47
59757;BME280;45631;51.962;5.974;2023-03-01T09:54:41;102750.00;;;5.23;75.88
59757;BME280;45631;51.962;5.974;2023-03-01T09:57:18;102744.59;;;5.37;74.74
59757;BME280;45631;51.962;5.974;2023-03-01T10:00:03;102740.16;;;5.45;73.98
59757;BME280;45631;51.962;5.974;2023-03-01T10:02:39;102735.69;;;5.55;73.18
59757;BME280;45631;51.962;5.974;2023-03-01T10:05:20;102733.06;;;5.53;71.28
59757;BME280;45631;51.962;5.974;2023-03-01T10:08:00;102731.13;;;5.68;71.32
59757;BME280;45631;51.962;5.974;2023-03-01T10:10:34;102731.84;;;5.79;70.16
59757;BME280;45631;51.962;5.974;2023-03-01T10:13:10;102741.03;;;6.06;68.61
59757;BME280;45631;51.962;5.974;2023-03-01T10:15:44;102743.47;;;6.17;65.28
59757;BME280;45631;51.962;5.974;2023-03-01T10:18:18;102750.22;;;6.31;65.51
59757;BME280;45631;51.962;5.974;2023-03-01T10:20:53;102732.00;;;6.28;64.20
59757;BME280;45631;51.962;5.974;2023-03-01T10:23:23;102741.84;;;6.62;64.95
59757;BME280;45631;51.962;5.974;2023-03-01T10:26:09;102718.97;;;6.73;63.71
59757;BME280;45631;51.962;5.974;2023-03-01T10:28:47;102704.09;;;7.20;62.60
59757;BME280;45631;51.962;5.974;2023-03-01T10:31:20;102710.81;;;7.31;59.81
59757;BME280;45631;51.962;5.974;2023-03-01T10:33:55;102704.09;;;7.59;60.55
59757;BME280;45631;51.962;5.974;2023-03-01T10:36:27;102695.31;;;7.60;57.27
59757;BME280;45631;51.962;5.974;2023-03-01T10:38:56;102696.88;;;7.69;59.22
59757;BME280;45631;51.962;5.974;2023-03-01T10:41:26;102695.31;;;7.98;57.85
59757;BME280;45631;51.962;5.974;2023-03-01T10:43:57;102692.97;;;8.22;57.90
59757;BME280;45631;51.962;5.974;2023-03-01T10:46:29;102690.56;;;8.14;57.57
59757;BME280;45631;51.962;5.974;2023-03-01T10:49:16;102695.69;;;8.19;53.96
59757;BME280;45631;51.962;5.974;2023-03-01T10:51:48;102696.63;;;8.16;53.64
59757;BME280;45631;51.962;5.974;2023-03-01T10:54:19;102686.59;;;8.32;54.20
59757;BME280;45631;51.962;5.974;2023-03-01T10:56:49;102686.69;;;8.29;53.74
59757;BME280;45631;51.962;5.974;2023-03-01T10:59:25;102674.94;;;8.45;53.62
59757;BME280;45631;51.962;5.974;2023-03-01T11:02:18;102677.31;;;8.53;53.08
59757;BME280;45631;51.962;5.974;2023-03-01T11:04:57;102679.34;;;8.75;53.44
59757;BME280;45631;51.962;5.974;2023-03-01T11:07:28;102682.66;;;8.82;52.48
59757;BME280;45631;51.962;5.974;2023-03-01T11:09:56;102672.63;;;9.26;52.60
59757;BME280;45631;51.962;5.974;2023-03-01T11:12:25;102679.66;;;9.54;51.71
59757;BME280;45631;51.962;5.974;2023-03-01T11:14:55;102685.38;;;9.93;49.33
59757;BME280;45631;51.962;5.974;2023-03-01T11:17:27;102677.09;;;9.79;50.03
59757;BME280;45631;51.962;5.974;2023-03-01T11:20:10;102680.59;;;10.05;48.31
59757;BME280;45631;51.962;5.974;2023-03-01T11:22:49;102677.06;;;9.52;48.06
59757;BME280;45631;51.962;5.974;2023-03-01T11:25:19;102684.06;;;10.07;47.06
59757;BME280;45631;51.962;5.974;2023-03-01T11:27:52;102678.69;;;10.37;45.20
59757;BME280;45631;51.962;5.974;2023-03-01T11:30:24;102675.03;;;10.41;45.77
59757;BME280;45631;51.962;5.974;2023-03-01T11:33:04;102678.38;;;10.19;44.89
59757;BME280;45631;51.962;5.974;2023-03-01T11:35:37;102677.69;;;10.14;44.91
59757;BME280;45631;51.962;5.974;2023-03-01T11:38:21;102675.03;;;10.14;45.60
59757;BME280;45631;51.962;5.974;2023-03-01T11:40:54;102674.16;;;10.15;45.82
59757;BME280;45631;51.962;5.974;2023-03-01T11:43:33;102662.72;;;10.16;46.74
59757;BME280;45631;51.962;5.974;2023-03-01T11:49:30;102653.75;;;10.72;44.10
59757;BME280;45631;51.962;5.974;2023-03-01T11:52:08;102657.28;;;10.71;43.45
59757;BME280;45631;51.962;5.974;2023-03-01T11:54:54;102649.66;;;10.40;45.23
59757;BME280;45631;51.962;5.974;2023-03-01T11:57:38;102654.13;;;10.38;44.17
59757;BME280;45631;51.962;5.974;2023-03-01T12:00:25;102654.34;;;10.30;43.59
59757;BME280;45631;51.962;5.974;2023-03-01T12:03:23;102664.53;;;10.14;44.23
59757;BME280;45631;51.962;5.974;2023-03-01T12:06:23;102652.53;;;10.57;44.91
59757;BME280;45631;51.962;5.974;2023-03-01T12:09:04;102644.81;;;10.76;45.20
59757;BME280;45631;51.962;5.974;2023-03-01T12:11:44;102638.59;;;11.25;43.42
59757;BME280;45631;51.962;5.974;2023-03-01T12:14:43;102639.38;;;11.05;44.23
59757;BME280;45631;51.962;5.974;2023-03-01T12:17:42;102632.03;;;10.89;44.11
59757;BME280;45631;51.962;5.974;2023-03-01T12:20:21;102631.47;;;11.49;42.48
59757;BME280;45631;51.962;5.974;2023-03-01T12:23:03;102619.66;;;11.80;42.18
59757;BME280;45631;51.962;5.974;2023-03-01T12:25:48;102628.91;;;11.25;40.38
59757;BME280;45631;51.962;5.974;2023-03-01T12:28:54;102616.28;;;11.56;41.30
59757;BME280;45631;51.962;5.974;2023-03-01T12:31:36;102618.31;;;11.05;40.96
59757;BME280;45631;51.962;5.974;2023-03-01T12:34:27;102613.66;;;11.11;40.94
59757;BME280;45631;51.962;5.974;2023-03-01T12:37:11;102609.63;;;10.79;40.63
59757;BME280;45631;51.962;5.974;2023-03-01T12:39:55;102600.97;;;11.21;40.65
59757;BME280;45631;51.962;5.974;2023-03-01T12:42:33;102603.31;;;11.72;39.01
59757;BME280;45631;51.962;5.974;2023-03-01T12:45:29;102606.31;;;11.42;39.60
59757;BME280;45631;51.962;5.974;2023-03-01T12:48:11;102609.66;;;11.67;38.98
59757;BME280;45631;51.962;5.974;2023-03-01T12:50:47;102608.13;;;10.95;39.54
59757;BME280;45631;51.962;5.974;2023-03-01T12:53:23;102596.81;;;11.15;39.82
59757;BME280;45631;51.962;5.974;2023-03-01T12:55:53;102598.28;;;11.23;38.45
59757;BME280;45631;51.962;5.974;2023-03-01T12:58:27;102597.13;;;11.73;37.67
59757;BME280;45631;51.962;5.974;2023-03-01T13:01:31;102587.72;;;11.45;37.68
59757;BME280;45631;51.962;5.974;2023-03-01T13:04:12;102580.28;;;11.12;39.00
59757;BME280;45631;51.962;5.974;2023-03-01T13:06:50;102572.00;;;11.21;38.00
59757;BME280;45631;51.962;5.974;2023-03-01T13:09:27;102560.16;;;12.15;37.24
59757;BME280;45631;51.962;5.974;2023-03-01T13:11:59;102558.34;;;12.37;37.22
59757;BME280;45631;51.962;5.974;2023-03-01T13:14:44;102547.66;;;12.40;37.13